Kezdőlap
METAR-TAF:

METAR-TAF

Repülőterek :

Bagdad, Irak

földrajzi szélesség: 33-15-45N, földrajzi hosszúság: 44-14-04E, magasság: 35 m

Jelenlegi meteorológiai megfigyelések

A jelentés 19 perccel ezelõtt készült, 01:30 UTC
Kelet-délkeleti szél 13 kt
Hőmérséklet 12°C
Páratartalom 50%
Légköri nyomás 1012 hPa
Látótávolság: 7000 m
kiterjedt por

METAR: ORBI 230130Z 12013KT 7000 DU NSC 12/02 Q1012

Idő: 04:49 (01:49 UTC)

Előrejelzés

A jelentés 3 órával és 49 perccel ezelõtt készült, 22:00 UTC
Az előrejelzés 23-én 24 óra UTC és 24-én 24 óra UTC között érvényes
Kelet-délkeleti szél 10 kt
Látótávolság: 8000 m

TAF: ORBI 222200Z 2324/2424 12010KT 8000 NSC

Meteorológiai megfigyelések és előrejelzések több, mint 4000 repülőtéren (METAR és TAF jelentéseket).

A térképen piros és sárga pontok jelzik az elérhető meteorológiai állomásokat.

Mozgassa az egeret a pont fölött, hogy megjelenjen az állomás neve.

Azután kattintson az időjárási megfigyelések és előrejelzések megtekintéséhez.

A térkép megváltoztatása: kattintson a fekete keresztel jelölt zöld gombra ráközelítéshez, a vonallal jelölt zöld gombra távolításhoz, vagy a zöld nyilakra a szomszédos térképek eléréséhez.


METAR-TAF: